Time,TemperatureF,DewpointF,PressureIn,WindDirection,WindDirectionDegrees,WindSpeedMPH,WindSpeedGustMPH,Humidity,HourlyPrecipIn,Conditions,Clouds,dailyrainin,SoftwareType,DateUTC
2013-10-29 00:00:00,-4.3,-20.8,29.20,NNE,28,8.0,8.0,44,0.00,CLR,,0.00,WeatherDisplay:10.37,2013-10-28 11:00:00,
2013-10-29 00:15:00,-2.1,-20.0,29.20,NNE,17,2.0,8.0,41,0.00,CLR,,0.00,WeatherDisplay:10.37,2013-10-28 11:15:00,
2013-10-29 00:30:00,-6.4,-23.6,29.20,NNE,23,1.0,2.0,42,0.00,CLR,,0.00,WeatherDisplay:10.37,2013-10-28 11:30:00,
2013-10-29 00:45:00,-8.3,-24.0,29.19,NNE,20,5.0,5.0,45,0.00,CLR,,0.00,WeatherDisplay:10.37,2013-10-28 11:45:00,
2013-10-29 01:00:00,-7.1,-22.9,29.19,NNE,17,6.0,6.0,45,0.00,CLR,,0.00,WeatherDisplay:10.37,2013-10-28 12:00:00,
2013-10-29 01:15:00,-4.5,-22.7,29.19,NNE,25,1.0,6.0,40,0.00,CLR,,0.00,WeatherDisplay:10.37,2013-10-28 12:15:00,
2013-10-29 01:30:00,-7.7,-23.9,29.19,North,0,0.0,1.0,44,0.00,CLR,,0.00,WeatherDisplay:10.37,2013-10-28 12:30:00,
2013-10-29 01:45:00,-6.3,-23.4,29.19,North,0,0.0,0.0,42,0.00,CLR,,0.00,WeatherDisplay:10.37,2013-10-28 12:45:00,
2013-10-29 02:00:00,-6.8,-22.6,29.19,NNE,25,2.0,2.0,45,0.00,CLR,,0.00,WeatherDisplay:10.37,2013-10-28 13:00:00,
2013-10-29 02:15:00,-2.5,-20.0,29.18,NNE,30,0.0,2.0,42,0.00,CLR,,0.00,WeatherDisplay:10.37,2013-10-28 13:15:00,
2013-10-29 02:30:00,-6.4,-22.3,29.19,NE,39,3.0,3.0,45,0.00,CLR,,0.00,WeatherDisplay:10.37,2013-10-28 13:30:00,
2013-10-29 02:45:00,-6.7,-20.9,29.19,NNE,20,3.0,3.0,49,0.00,CLR,,0.00,WeatherDisplay:10.37,2013-10-28 13:45:00,
2013-10-29 03:00:00,-7.2,-20.2,29.19,NNE,22,1.0,3.0,52,0.00,CLR,,0.00,WeatherDisplay:10.37,2013-10-28 14:00:00,
2013-10-29 03:15:00,-7.1,-19.8,29.19,NNE,20,3.0,3.0,53,0.00,CLR,,0.00,WeatherDisplay:10.37,2013-10-28 14:15:00,
2013-10-29 03:30:00,-6.2,-20.0,29.19,NNE,20,3.0,3.0,50,0.00,CLR,,0.00,WeatherDisplay:10.37,2013-10-28 14:30:00,
2013-10-29 03:45:00,-5.9,-18.6,29.19,NNE,12,3.0,3.0,53,0.00,CLR,,0.00,WeatherDisplay:10.37,2013-10-28 14:45:00,
2013-10-29 04:00:00,-6.6,-19.7,29.19,NNE,22,6.0,6.0,52,0.00,CLR,,0.00,WeatherDisplay:10.37,2013-10-28 15:00:00,
2013-10-29 04:15:00,-11.1,-23.5,29.21,NE,38,7.0,7.0,53,0.00,CLR,,0.00,WeatherDisplay:10.37,2013-10-28 15:15:00,
2013-10-29 04:30:00,-12.4,-24.0,29.21,NNE,30,8.0,8.0,55,0.00,CLR,,0.00,WeatherDisplay:10.37,2013-10-28 15:30:00,
2013-10-29 04:45:00,-9.9,-22.8,29.22,NE,35,12.0,12.0,52,0.00,CLR,,0.00,WeatherDisplay:10.37,2013-10-28 15:45:00,
2013-10-29 05:00:00,-9.3,-21.8,29.22,NNE,26,13.0,13.0,53,0.00,CLR,,0.00,WeatherDisplay:10.37,2013-10-28 16:00:00,
2013-10-29 05:15:00,-6.8,-21.0,29.22,NNE,24,14.0,14.0,49,0.00,CLR,,0.00,WeatherDisplay:10.37,2013-10-28 16:15:00,
2013-10-29 05:30:00,-6.7,-21.3,29.23,NE,43,13.0,14.0,48,0.00,CLR,,0.00,WeatherDisplay:10.37,2013-10-28 16:30:00,
2013-10-29 05:45:00,-11.4,-22.8,29.23,NE,37,12.0,13.0,56,0.00,CLR,,0.00,WeatherDisplay:10.37,2013-10-28 16:45:00,
2013-10-29 06:00:00,-11.0,-22.4,29.23,NE,38,13.0,13.0,56,0.00,CLR,,0.00,WeatherDisplay:10.37,2013-10-28 17:00:00,
2013-10-29 06:15:00,-8.8,-20.0,29.23,NNE,30,15.0,15.0,57,0.00,CLR,,0.00,WeatherDisplay:10.37,2013-10-28 17:15:00,
2013-10-29 06:30:00,-9.5,-21.3,29.23,NE,38,14.0,15.0,55,0.00,CLR,,0.00,WeatherDisplay:10.37,2013-10-28 17:30:00,
2013-10-29 06:45:00,-7.7,-18.6,29.22,NNE,33,16.0,16.0,58,0.00,CLR,,0.00,WeatherDisplay:10.37,2013-10-28 17:45:00,
2013-10-29 07:00:00,-7.5,-18.7,29.22,NNE,31,16.0,16.0,57,0.00,CLR,,0.00,WeatherDisplay:10.37,2013-10-28 18:00:00,
2013-10-29 07:15:00,-6.8,-18.5,29.23,NNE,31,16.0,16.0,56,0.00,CLR,,0.00,WeatherDisplay:10.37,2013-10-28 18:15:00,
2013-10-29 07:30:00,-6.7,-18.7,29.23,NNE,29,16.0,16.0,55,0.00,CLR,,0.00,WeatherDisplay:10.37,2013-10-28 18:30:00,
2013-10-29 07:45:00,-6.8,-18.4,29.23,NNE,28,16.0,16.0,56,0.00,CLR,,0.00,WeatherDisplay:10.37,2013-10-28 18:45:00,
2013-10-29 08:00:00,-6.8,-18.4,29.23,NNE,26,16.0,16.0,56,0.00,CLR,,0.00,WeatherDisplay:10.37,2013-10-28 19:00:00,
2013-10-29 08:15:00,-8.3,-18.8,29.23,NNE,31,16.0,16.0,59,0.00,CLR,,0.00,WeatherDisplay:10.37,2013-10-28 19:15:00,
2013-10-29 08:30:00,-7.9,-18.4,29.23,NNE,30,17.0,17.0,59,0.00,CLR,,0.00,WeatherDisplay:10.37,2013-10-28 19:30:00,
2013-10-29 08:45:00,-7.6,-18.5,29.24,NNE,32,20.0,20.0,58,0.00,CLR,,0.00,WeatherDisplay:10.37,2013-10-28 19:45:00,
2013-10-29 09:00:00,-7.7,-18.6,29.24,NNE,33,18.0,20.0,58,0.00,CLR,,0.00,WeatherDisplay:10.37,2013-10-28 20:00:00,
2013-10-29 09:15:00,-6.1,-18.1,29.24,NE,34,17.0,18.0,55,0.00,CLR,,0.00,WeatherDisplay:10.37,2013-10-28 20:15:00,
2013-10-29 09:30:00,-5.1,-17.9,29.24,NNE,33,16.0,17.0,53,0.00,CLR,,0.00,WeatherDisplay:10.37,2013-10-28 20:30:00,
2013-10-29 09:45:00,-6.5,-18.1,29.24,NE,35,15.0,16.0,56,0.00,CLR,,0.00,WeatherDisplay:10.37,2013-10-28 20:45:00,
2013-10-29 10:00:00,-5.8,-18.2,29.25,NE,37,14.0,15.0,54,0.00,CLR,,0.00,WeatherDisplay:10.37,2013-10-28 21:00:00,
2013-10-29 10:15:00,-5.1,-17.6,29.25,NE,35,14.0,14.0,54,0.00,CLR,,0.00,WeatherDisplay:10.37,2013-10-28 21:15:00,
2013-10-29 10:30:00,-4.4,-16.9,29.25,NNE,32,15.0,15.0,54,0.00,CLR,,0.00,WeatherDisplay:10.37,2013-10-28 21:30:00,
2013-10-29 10:45:00,-4.4,-16.9,29.25,NNE,29,14.0,15.0,54,0.00,CLR,,0.00,WeatherDisplay:10.37,2013-10-28 21:45:00,
2013-10-29 11:00:00,-4.7,-19.0,29.25,ENE,76,8.0,14.0,49,0.00,CLR,,0.00,WeatherDisplay:10.37,2013-10-28 22:00:00,
2013-10-29 11:15:00,-9.5,-21.3,29.26,ENE,63,7.0,8.0,55,0.00,CLR,,0.00,WeatherDisplay:10.37,2013-10-28 22:15:00,
2013-10-29 11:30:00,-10.4,-21.1,29.26,NE,47,7.0,7.0,58,0.00,CLR,,0.00,WeatherDisplay:10.37,2013-10-28 22:30:00,
2013-10-29 11:45:00,-10.9,-20.3,29.26,NNE,19,9.0,9.0,62,0.00,CLR,,0.00,WeatherDisplay:10.37,2013-10-28 22:45:00,
2013-10-29 12:00:00,-8.7,-18.8,29.26,NNE,21,8.0,9.0,60,0.00,CLR,,0.00,WeatherDisplay:10.37,2013-10-28 23:00:00,
2013-10-29 12:15:00,-7.5,-19.1,29.26,NE,39,5.0,8.0,56,0.00,CLR,,0.00,WeatherDisplay:10.37,2013-10-28 23:15:00,
2013-10-29 12:30:00,-8.8,-19.0,29.26,NE,38,5.0,5.0,60,0.00,CLR,,0.00,WeatherDisplay:10.37,2013-10-28 23:30:00,
2013-10-29 12:45:00,-6.5,-19.2,29.27,North,0,0.0,5.0,53,0.00,CLR,,0.00,WeatherDisplay:10.37,2013-10-28 23:45:00,
2013-10-29 13:00:00,-5.7,-18.8,29.26,NE,34,2.0,2.0,52,0.00,CLR,,0.00,WeatherDisplay:10.37,2013-10-29 00:00:00,
2013-10-29 13:15:00,-4.2,-17.0,29.26,NNE,27,6.0,6.0,53,0.00,CLR,,0.00,WeatherDisplay:10.37,2013-10-29 00:15:00,
2013-10-29 13:30:00,-3.1,-16.4,29.26,NNE,25,7.0,7.0,52,0.00,CLR,,0.00,WeatherDisplay:10.37,2013-10-29 00:30:00,
2013-10-29 13:45:00,-3.4,-16.6,29.27,NNE,27,6.0,7.0,52,0.00,CLR,,0.00,WeatherDisplay:10.37,2013-10-29 00:45:00,
2013-10-29 14:00:00,-2.3,-15.6,29.27,NNE,25,7.0,7.0,52,0.00,CLR,,0.00,WeatherDisplay:10.37,2013-10-29 01:00:00,
2013-10-29 14:15:00,0.6,-15.3,29.27,NNE,22,8.0,8.0,46,0.00,CLR,,0.00,WeatherDisplay:10.37,2013-10-29 01:15:00,
2013-10-29 14:30:00,2.1,-14.8,29.27,NNE,22,6.0,8.0,44,0.00,CLR,,0.00,WeatherDisplay:10.37,2013-10-29 01:30:00,
2013-10-29 14:45:00,-2.1,-14.7,29.28,WSW,237,0.0,6.0,54,0.00,CLR,,0.00,WeatherDisplay:10.37,2013-10-29 01:45:00,
2013-10-29 15:00:00,-2.6,-14.8,29.28,North,0,0.0,0.0,55,0.00,CLR,,0.00,WeatherDisplay:10.37,2013-10-29 02:00:00,
2013-10-29 15:15:00,0.0,-13.9,29.28,NNE,23,2.0,2.0,51,0.00,CLR,,0.00,WeatherDisplay:10.37,2013-10-29 02:15:00,
2013-10-29 15:30:00,0.2,-14.5,29.28,NNE,22,6.0,6.0,49,0.00,CLR,,0.00,WeatherDisplay:10.37,2013-10-29 02:30:00,
2013-10-29 15:45:00,0.5,-14.2,29.28,NNE,18,7.0,7.0,49,0.00,CLR,,0.00,WeatherDisplay:10.37,2013-10-29 02:45:00,
2013-10-29 16:00:00,1.7,-15.7,29.29,NNE,16,6.0,7.0,43,0.00,CLR,,0.00,WeatherDisplay:10.37,2013-10-29 03:00:00,
2013-10-29 16:15:00,4.1,-18.1,29.29,NNE,17,5.0,6.0,34,0.00,CLR,,0.00,WeatherDisplay:10.37,2013-10-29 03:15:00,
2013-10-29 16:30:00,4.1,-18.1,29.29,NNE,18,6.0,6.0,34,0.00,CLR,,0.00,WeatherDisplay:10.37,2013-10-29 03:30:00,
2013-10-29 16:45:00,4.2,-16.4,29.30,NNE,26,5.0,6.0,37,0.00,CLR,,0.00,WeatherDisplay:10.37,2013-10-29 03:45:00,
2013-10-29 17:00:00,3.5,-17.0,29.30,NNE,20,6.0,6.0,37,0.00,CLR,,0.00,WeatherDisplay:10.37,2013-10-29 04:00:00,
2013-10-29 17:15:00,2.8,-17.1,29.30,NNE,22,6.0,6.0,38,0.00,CLR,,0.00,WeatherDisplay:10.37,2013-10-29 04:15:00,
2013-10-29 17:30:00,2.9,-18.6,29.30,NNE,25,5.0,6.0,35,0.00,CLR,,0.00,WeatherDisplay:10.37,2013-10-29 04:30:00,
2013-10-29 17:45:00,3.0,-18.5,29.30,NNE,22,6.0,6.0,35,0.00,CLR,,0.00,WeatherDisplay:10.37,2013-10-29 04:45:00,
2013-10-29 18:00:00,3.4,-19.3,29.30,NNE,27,6.0,6.0,33,0.00,CLR,,0.00,WeatherDisplay:10.37,2013-10-29 05:00:00,
2013-10-29 18:15:00,4.1,-19.3,29.30,NE,44,5.0,6.0,32,0.00,CLR,,0.00,WeatherDisplay:10.37,2013-10-29 05:15:00,
2013-10-29 18:30:00,4.0,-18.8,29.31,NE,38,5.0,5.0,33,0.00,CLR,,0.00,WeatherDisplay:10.37,2013-10-29 05:30:00,
2013-10-29 18:45:00,3.8,-18.4,29.31,ENE,57,3.0,5.0,34,0.00,CLR,,0.00,WeatherDisplay:10.37,2013-10-29 05:45:00,
2013-10-29 19:00:00,3.5,-18.1,29.32,ENE,61,2.0,3.0,35,0.00,CLR,,0.00,WeatherDisplay:10.37,2013-10-29 06:00:00,
2013-10-29 19:15:00,2.7,-17.2,29.31,ENE,62,3.0,3.0,38,0.00,CLR,,0.00,WeatherDisplay:10.37,2013-10-29 06:15:00,
2013-10-29 19:30:00,2.4,-17.5,29.31,ENE,66,5.0,5.0,38,0.00,CLR,,0.00,WeatherDisplay:10.37,2013-10-29 06:30:00,
2013-10-29 19:45:00,2.1,-16.7,29.32,East,79,5.0,5.0,40,0.00,CLR,,0.00,WeatherDisplay:10.37,2013-10-29 06:45:00,
2013-10-29 20:00:00,1.8,-16.5,29.32,ENE,62,3.0,5.0,41,0.00,CLR,,0.00,WeatherDisplay:10.37,2013-10-29 07:00:00,
2013-10-29 20:15:00,1.1,-17.1,29.32,NNE,24,2.0,3.0,41,0.00,CLR,,0.00,WeatherDisplay:10.37,2013-10-29 07:15:00,
2013-10-29 20:30:00,1.5,-16.8,29.33,NNE,27,2.0,2.0,41,0.00,CLR,,0.00,WeatherDisplay:10.37,2013-10-29 07:30:00,
2013-10-29 20:45:00,0.2,-18.0,29.33,NE,34,5.0,5.0,41,0.00,CLR,,0.00,WeatherDisplay:10.37,2013-10-29 07:45:00,
2013-10-29 21:00:00,-1.1,-18.2,29.33,NE,36,3.0,5.0,43,0.00,CLR,,0.00,WeatherDisplay:10.37,2013-10-29 08:00:00,
2013-10-29 21:15:00,-4.1,-20.1,29.34,NNE,30,6.0,6.0,45,0.00,CLR,,0.00,WeatherDisplay:10.37,2013-10-29 08:15:00,
2013-10-29 21:30:00,-4.5,-20.1,29.34,NNE,24,6.0,6.0,46,0.00,CLR,,0.00,WeatherDisplay:10.37,2013-10-29 08:30:00,
2013-10-29 21:45:00,-2.8,-20.3,29.34,NNE,23,8.0,8.0,42,0.00,CLR,,0.00,WeatherDisplay:10.37,2013-10-29 08:45:00,
2013-10-29 22:00:00,-4.7,-20.7,29.34,NNE,17,8.0,8.0,45,0.00,CLR,,0.00,WeatherDisplay:10.37,2013-10-29 09:00:00,
2013-10-29 22:15:00,-0.2,-19.4,29.34,North,7,9.0,9.0,39,0.00,CLR,,0.00,WeatherDisplay:10.37,2013-10-29 09:15:00,
2013-10-29 22:30:00,-0.2,-19.3,29.34,North,6,10.0,10.0,39,0.00,CLR,,0.00,WeatherDisplay:10.37,2013-10-29 09:30:00,
2013-10-29 22:45:00,1.7,-20.8,29.34,NNE,20,7.0,10.0,33,0.00,CLR,,0.00,WeatherDisplay:10.37,2013-10-29 09:45:00,
2013-10-29 23:00:00,2.0,-21.2,29.34,NNE,16,7.0,7.0,32,0.00,CLR,,0.00,WeatherDisplay:10.37,2013-10-29 10:00:00,
2013-10-29 23:15:00,1.9,-21.2,29.34,NNE,12,5.0,7.0,32,0.00,CLR,,0.00,WeatherDisplay:10.37,2013-10-29 10:15:00,
2013-10-29 23:30:00,2.4,-21.5,29.34,North,3,5.0,5.0,31,0.00,CLR,,0.00,WeatherDisplay:10.37,2013-10-29 10:30:00,
2013-10-29 23:45:00,3.7,-21.6,29.35,NNW,342,2.0,5.0,29,0.00,CLR,,0.00,WeatherDisplay:10.37,2013-10-29 10:45:00,